Pucon, Chile
Current Conditions -  °F | °C
As of 1:00 PM on Thursday 23 Oct 2014 (Local Time) from SCQP Reporting Station
Clear Clear  
Wind Chill: 68°   Ceiling: Unl
Heat Index: 68°   Visibility: 6mi
Dew Point: 52°   Wind: 6mph
Humidity: 56%   Direction: 200°SSW
Pressure: 30.03"   Gusts: NA
Location:  39.28°S, 71.97°W
Report Text: SCQP 231700Z 20005KT 140V250 CAVOK 20/11 Q1017
Loading
Personal Weather Stations






























Interactive Weather Map
Tropical Storm Tracking
New forecast layout! Learn more

10-Day Weather Forecast

Advertisements
Track Severe Weather on mobile